Rowley, Iowa
Current Conditions -  °F | °C
As of 1:15 PM on Monday 20 Oct 2014 (Local Time) from KIIB Reporting Station
Scattered Clouds Scattered Clouds  
Wind Chill: 66°   Ceiling: Unl
Heat Index: 66°   Visibility: 10mi
Dew Point: 43°   Wind: 12mph
Humidity: 43%   Direction: 320°NW
Pressure: 29.95"   Gusts: 20mph
Location:  42.37°N, 91.84°W
Report Text: KIIB 201815Z AUTO 32010G17KT 10SM SCT049 19/06 A2995 RMK AO2
Loading
Personal Weather Stations






























Interactive Weather Map
Tropical Storm Tracking
New forecast layout! Learn more

10-Day Weather Forecast

Advertisements
Track Severe Weather on mobile